Terminal Aerodrome Forecast
Issued by NWS Upton, NY

Current Version | Previous Version | Text Only | Print | Product List | Glossary On
Versions: 1 2 3 4 5 6 7 8 9 10 11 12 13 14 15 16 17 18 19 20 21 22 23 24 25 26 27 28 29 30 31 32 33 34 35
000
FTUS41 KOKX 290831 AAA
TAFJFK
TAF AMD
KJFK 290831Z 2909/3012 VRB03KT 1SM BR OVC002
      TEMPO 2909/2912 1/2SM FG
     FM291200 32005KT P6SM SCT010 BKN020
     FM291500 VRB03KT P6SM SCT050
     FM291700 18012KT P6SM SCT060
     FM300200 31007KT P6SM SCT060=

USA.gov is the U.S. government's official web portal to all federal, state and local government web resources and services.